Time;durP1;ratioP1;P1;durP2;ratioP2;P2;SDS_P1;SDS_P2;PMS_P1;PMS_P2;Temp;Humidity;BMP_temperature;BMP_pressure;BME280_temperature;BME280_humidity;BME280_pressure;Samples;Min_cycle;Max_cycle;Signal;HPM_P1;HPM_P2
2023/04/04 00:00:54;;;;;;;2.97;1.90;;;10.30;91.00;;;;;;6092743;23;20181;-75
2023/04/04 00:03:22;;;;;;;4.63;2.00;;;10.20;90.80;;;;;;6091613;23;20225;-75
2023/04/04 00:05:51;;;;;;;3.93;1.90;;;10.30;90.80;;;;;;6090629;23;20193;-76
2023/04/04 00:08:21;;;;;;;4.63;1.90;;;10.30;90.80;;;;;;6090688;23;20170;-74
2023/04/04 00:10:50;;;;;;;4.50;2.23;;;10.20;90.70;;;;;;6092710;23;20482;-75
2023/04/04 00:13:18;;;;;;;3.80;2.07;;;10.10;90.70;;;;;;6092369;23;20276;-76
2023/04/04 00:15:47;;;;;;;3.67;1.93;;;10.10;90.80;;;;;;6093451;23;20554;-75
2023/04/04 00:18:15;;;;;;;2.80;1.87;;;10.20;90.90;;;;;;6093656;23;20174;-76
2023/04/04 00:20:44;;;;;;;4.20;2.37;;;10.20;90.80;;;;;;6091706;23;20275;-75
2023/04/04 00:23:12;;;;;;;4.20;2.10;;;10.10;90.50;;;;;;6090886;23;20189;-75
2023/04/04 00:25:42;;;;;;;6.47;1.97;;;10.10;90.50;;;;;;6091405;23;20184;-75
2023/04/04 00:28:22;;;;;;;4.10;2.10;;;10.10;90.30;;;;;;6093474;23;20162;-75
2023/04/04 00:30:50;;;;;;;5.00;2.17;;;10.10;90.30;;;;;;6091953;23;20166;-75
2023/04/04 00:33:18;;;;;;;3.07;1.93;;;10.10;90.50;;;;;;6091766;23;20627;-74
2023/04/04 00:35:48;;;;;;;4.07;1.93;;;10.10;90.40;;;;;;6092450;23;20281;-74
2023/04/04 00:38:17;;;;;;;6.00;2.30;;;10.10;90.40;;;;;;6091125;23;20180;-73
2023/04/04 00:40:49;;;;;;;3.83;2.23;;;10.10;90.40;;;;;;6093709;23;20181;-77
2023/04/04 00:43:19;;;;;;;4.80;1.90;;;10.10;90.30;;;;;;6090750;23;20170;-76
2023/04/04 00:45:47;;;;;;;3.97;2.10;;;10.10;90.50;;;;;;6095035;23;20300;-74
2023/04/04 00:48:16;;;;;;;3.63;1.90;;;10.10;90.10;;;;;;6094366;23;20174;-73
2023/04/04 00:50:44;;;;;;;3.97;2.10;;;10.10;90.10;;;;;;6089798;23;20170;-74
2023/04/04 00:53:12;;;;;;;3.63;2.03;;;10.00;90.20;;;;;;6092780;23;20197;-74
2023/04/04 00:55:42;;;;;;;5.23;2.40;;;10.00;90.20;;;;;;6091727;23;20185;-74
2023/04/04 00:58:12;;;;;;;4.60;2.20;;;10.00;90.00;;;;;;6092836;23;20198;-72
2023/04/04 01:00:41;;;;;;;4.83;2.60;;;10.00;89.90;;;;;;6093301;23;20632;-75
2023/04/04 01:03:11;;;;;;;8.67;2.40;;;10.00;89.50;;;;;;6092411;23;20181;-79
2023/04/04 01:05:40;;;;;;;3.90;1.87;;;9.90;89.60;;;;;;6094269;23;20168;-74
2023/04/04 01:08:09;;;;;;;4.13;2.50;;;9.90;89.40;;;;;;6093202;23;20181;-74
2023/04/04 01:10:39;;;;;;;4.60;2.30;;;9.90;89.30;;;;;;6093880;23;20182;-74
2023/04/04 01:13:08;;;;;;;5.07;2.67;;;9.80;90.00;;;;;;6092993;23;20196;-73
2023/04/04 01:15:38;;;;;;;3.93;2.30;;;9.70;89.00;;;;;;6093878;23;20504;-74
2023/04/04 01:18:08;;;;;;;4.93;2.60;;;9.70;89.40;;;;;;6091797;23;20177;-72
2023/04/04 01:20:44;;;;;;;5.60;2.80;;;9.70;89.60;;;;;;6091510;23;20249;-74
2023/04/04 01:23:13;;;;;;;5.00;2.57;;;9.80;89.20;;;;;;6091969;23;20505;-74
2023/04/04 01:25:43;;;;;;;5.13;2.47;;;9.80;89.10;;;;;;6092498;23;20174;-74
2023/04/04 01:28:11;;;;;;;5.87;3.00;;;9.70;88.80;;;;;;6091356;23;20166;-74
2023/04/04 01:30:41;;;;;;;6.77;2.87;;;9.70;88.70;;;;;;6092577;23;20174;-74
2023/04/04 01:33:19;;;;;;;3.73;2.47;;;9.70;88.70;;;;;;6092437;23;20519;-72
2023/04/04 01:35:57;;;;;;;5.10;2.80;;;9.60;88.50;;;;;;6092544;23;20165;-74
2023/04/04 01:38:33;;;;;;;4.97;2.80;;;9.60;88.80;;;;;;6089395;23;20161;-74
2023/04/04 01:41:06;;;;;;;4.90;2.90;;;9.60;89.20;;;;;;6092387;23;20165;-75
2023/04/04 01:43:36;;;;;;;5.37;3.00;;;9.50;89.30;;;;;;6093165;23;20241;-75
2023/04/04 01:46:05;;;;;;;3.77;2.37;;;9.50;89.60;;;;;;6092148;23;20182;-73
2023/04/04 01:48:33;;;;;;;4.13;2.60;;;9.50;89.60;;;;;;6091979;23;20213;-75
2023/04/04 01:51:02;;;;;;;5.07;2.23;;;9.50;89.90;;;;;;6090779;23;20545;-74
2023/04/04 01:53:30;;;;;;;4.07;2.30;;;9.40;89.70;;;;;;6093171;23;20205;-76
2023/04/04 01:55:59;;;;;;;5.35;3.00;;;9.40;90.00;;;;;;6090319;23;20393;-75
2023/04/04 01:58:28;;;;;;;4.43;2.57;;;9.40;90.10;;;;;;6090310;23;20876;-72
2023/04/04 02:00:57;;;;;;;4.73;2.40;;;9.40;90.10;;;;;;6087919;23;20173;-75
2023/04/04 02:03:25;;;;;;;5.33;2.20;;;9.30;90.10;;;;;;6087699;23;20230;-74
2023/04/04 02:05:54;;;;;;;5.70;2.93;;;9.30;90.30;;;;;;6088765;23;20643;-74
2023/04/04 02:08:22;;;;;;;6.50;2.57;;;9.20;90.50;;;;;;6087391;23;20178;-76
2023/04/04 02:10:50;;;;;;;3.50;2.27;;;9.20;90.50;;;;;;6088880;23;20229;-76
2023/04/04 02:13:19;;;;;;;4.20;2.47;;;9.20;90.70;;;;;;6087239;23;20177;-76
2023/04/04 02:15:49;;;;;;;4.17;2.13;;;9.20;90.80;;;;;;6092607;23;20173;-75
2023/04/04 02:18:17;;;;;;;4.03;1.83;;;9.10;90.70;;;;;;6091687;23;20169;-75
2023/04/04 02:20:45;;;;;;;3.93;2.23;;;9.20;90.90;;;;;;6091156;23;20245;-74
2023/04/04 02:23:14;;;;;;;6.20;2.30;;;9.20;91.30;;;;;;6088087;23;20327;-75
2023/04/04 02:25:42;;;;;;;3.43;2.00;;;9.20;90.90;;;;;;6089817;23;20228;-72
2023/04/04 02:28:10;;;;;;;5.10;2.43;;;9.20;90.80;;;;;;6090901;23;20232;-75
2023/04/04 02:30:39;;;;;;;4.37;2.53;;;9.20;90.80;;;;;;6093882;23;20173;-75
2023/04/04 02:33:09;;;;;;;4.53;2.30;;;9.20;90.70;;;;;;6090049;23;20174;-74
2023/04/04 02:35:37;;;;;;;4.13;2.10;;;9.10;90.70;;;;;;6092746;23;21068;-75
2023/04/04 02:38:06;;;;;;;5.00;2.37;;;9.10;90.80;;;;;;6091513;23;20177;-74
2023/04/04 02:40:38;;;;;;;4.67;2.30;;;9.10;90.90;;;;;;6087034;23;20177;-76
2023/04/04 02:43:07;;;;;;;3.90;2.30;;;9.10;91.00;;;;;;6092299;23;20189;-73
2023/04/04 02:45:35;;;;;;;3.77;2.00;;;9.20;90.90;;;;;;6093159;23;20170;-74
2023/04/04 02:48:03;;;;;;;4.17;2.30;;;9.10;90.90;;;;;;6093273;23;20233;-74
2023/04/04 02:50:33;;;;;;;3.80;2.10;;;9.20;91.00;;;;;;6092329;23;20606;-74
2023/04/04 02:53:02;;;;;;;6.53;2.17;;;9.20;90.90;;;;;;6092408;23;20178;-76
2023/04/04 02:55:30;;;;;;;5.27;2.50;;;9.10;91.00;;;;;;6092833;23;20213;-73
2023/04/04 02:58:00;;;;;;;4.23;2.27;;;9.20;91.10;;;;;;6094458;23;20173;-74
2023/04/04 03:00:29;;;;;;;4.00;2.40;;;9.20;90.90;;;;;;6093405;23;20208;-75
2023/04/04 03:02:58;;;;;;;4.77;2.40;;;9.20;90.80;;;;;;6094299;23;20178;-76
2023/04/04 03:05:28;;;;;;;6.10;3.17;;;9.20;90.90;;;;;;6092955;23;20180;-77
2023/04/04 03:07:58;;;;;;;4.23;2.50;;;9.20;91.00;;;;;;6092708;23;20173;-76
2023/04/04 03:10:29;;;;;;;6.13;2.57;;;9.20;90.90;;;;;;6090912;23;20173;-76
2023/04/04 03:12:58;;;;;;;4.47;2.43;;;9.20;90.90;;;;;;6092511;23;20158;-76
2023/04/04 03:15:27;;;;;;;5.70;2.40;;;9.20;90.90;;;;;;6093274;23;20208;-74
2023/04/04 03:17:57;;;;;;;4.10;2.13;;;9.20;90.60;;;;;;6088397;23;20178;-73
2023/04/04 03:20:26;;;;;;;4.43;2.27;;;9.20;90.40;;;;;;6089810;23;20190;-73
2023/04/04 03:22:56;;;;;;;4.33;1.90;;;9.20;90.40;;;;;;6091092;23;20236;-75
2023/04/04 03:25:26;;;;;;;4.20;2.33;;;9.20;90.50;;;;;;6089202;23;20386;-75
2023/04/04 03:27:54;;;;;;;4.47;2.23;;;9.20;90.40;;;;;;6094142;23;20201;-74
2023/04/04 03:30:22;;;;;;;3.93;2.10;;;9.20;90.30;;;;;;6092272;23;20225;-75
2023/04/04 03:32:52;;;;;;;3.43;1.97;;;9.20;90.30;;;;;;6087707;23;20177;-76
2023/04/04 03:35:20;;;;;;;3.87;2.20;;;9.30;90.20;;;;;;6091907;23;20554;-75
2023/04/04 03:37:49;;;;;;;3.70;1.87;;;9.30;90.20;;;;;;6092944;23;20956;-75
2023/04/04 03:40:17;;;;;;;5.47;2.23;;;9.30;90.10;;;;;;6092116;23;20615;-74
2023/04/04 03:42:47;;;;;;;4.67;2.20;;;9.20;90.00;;;;;;6088560;23;20173;-74
2023/04/04 03:45:15;;;;;;;3.83;2.03;;;9.20;90.00;;;;;;6091268;23;20217;-76
2023/04/04 03:47:44;;;;;;;3.40;1.87;;;9.20;90.20;;;;;;6092719;23;20174;-76
2023/04/04 03:50:12;;;;;;;3.00;1.90;;;9.20;90.10;;;;;;6093813;23;20252;-78
2023/04/04 03:52:41;;;;;;;3.63;1.97;;;9.20;90.10;;;;;;6090030;23;20711;-74
2023/04/04 03:55:10;;;;;;;3.67;1.90;;;9.20;90.20;;;;;;6089879;23;20655;-73
2023/04/04 03:57:38;;;;;;;3.23;2.00;;;9.10;90.50;;;;;;6088613;23;20178;-76
2023/04/04 04:00:09;;;;;;;4.17;2.13;;;9.10;90.70;;;;;;6088281;23;20644;-76
2023/04/04 04:02:38;;;;;;;3.27;2.00;;;9.10;90.60;;;;;;6092685;23;20162;-75
2023/04/04 04:05:08;;;;;;;3.30;1.83;;;9.10;90.70;;;;;;6090242;23;20723;-73
2023/04/04 04:07:36;;;;;;;4.13;2.37;;;9.10;90.70;;;;;;6089408;23;20174;-74
2023/04/04 04:10:05;;;;;;;5.53;2.00;;;9.10;90.70;;;;;;6091446;23;20197;-76
2023/04/04 04:12:33;;;;;;;4.10;2.53;;;9.10;90.80;;;;;;6092043;23;20181;-76
2023/04/04 04:15:02;;;;;;;3.13;1.90;;;9.10;90.80;;;;;;6093917;23;20237;-76
2023/04/04 04:17:31;;;;;;;4.13;2.27;;;9.10;90.90;;;;;;6090698;23;20652;-75
2023/04/04 04:20:00;;;;;;;5.17;2.73;;;9.10;90.90;;;;;;6090160;23;20177;-74
2023/04/04 04:22:28;;;;;;;4.83;2.20;;;9.20;90.90;;;;;;6089489;23;20225;-77
2023/04/04 04:24:56;;;;;;;3.83;2.03;;;9.10;90.80;;;;;;6089102;23;20177;-75
2023/04/04 04:27:25;;;;;;;4.37;2.23;;;9.20;90.80;;;;;;6091393;23;20996;-74
2023/04/04 04:29:53;;;;;;;3.90;2.27;;;9.10;90.60;;;;;;6093145;23;20254;-76
2023/04/04 04:32:21;;;;;;;3.33;1.93;;;9.10;90.80;;;;;;6091686;23;20233;-74
2023/04/04 04:34:51;;;;;;;3.43;2.23;;;9.20;90.70;;;;;;6092207;23;20198;-75
2023/04/04 04:37:19;;;;;;;4.00;2.20;;;9.20;90.70;;;;;;6090133;23;20237;-74
2023/04/04 04:39:48;;;;;;;4.27;2.17;;;9.20;90.60;;;;;;6094608;23;20560;-75
2023/04/04 04:42:16;;;;;;;4.67;2.30;;;9.20;90.60;;;;;;6093643;23;20178;-76
2023/04/04 04:44:44;;;;;;;3.87;2.23;;;9.30;90.60;;;;;;6093437;23;20182;-78
2023/04/04 04:47:13;;;;;;;5.00;2.40;;;9.20;90.70;;;;;;6092435;23;20174;-75
2023/04/04 04:49:43;;;;;;;6.15;3.00;;;9.30;90.70;;;;;;6092360;23;20771;-75
2023/04/04 04:52:13;;;;;;;4.13;2.53;;;9.30;90.70;;;;;;6092656;23;20165;-75
2023/04/04 04:54:42;;;;;;;5.53;2.40;;;9.30;90.60;;;;;;6095289;23;20180;-73
2023/04/04 04:57:10;;;;;;;6.27;3.13;;;9.30;90.60;;;;;;6094066;23;20174;-77
2023/04/04 04:59:40;;;;;;;7.30;3.20;;;9.30;90.50;;;;;;6094438;23;20198;-75
2023/04/04 05:02:08;;;;;;;6.13;2.87;;;9.30;90.50;;;;;;6091386;23;20176;-75
2023/04/04 05:04:36;;;;;;;6.67;3.53;;;9.40;90.60;;;;;;6092575;23;20185;-75
2023/04/04 05:07:07;;;;;;;6.97;3.03;;;9.40;90.40;;;;;;6092473;23;20671;-75
2023/04/04 05:09:36;;;;;;;5.20;2.90;;;9.30;90.50;;;;;;6094749;23;20162;-76
2023/04/04 05:12:05;;;;;;;5.43;3.00;;;9.30;90.70;;;;;;6091424;23;20231;-73
2023/04/04 05:14:33;;;;;;;5.17;3.20;;;9.30;90.50;;;;;;6093551;23;20173;-76
2023/04/04 05:17:02;;;;;;;5.93;3.03;;;9.20;90.40;;;;;;6092958;23;20201;-74
2023/04/04 05:19:30;;;;;;;4.33;2.73;;;9.20;90.60;;;;;;6094036;23;20202;-73
2023/04/04 05:21:59;;;;;;;5.60;3.53;;;9.20;90.70;;;;;;6091297;23;20249;-74
2023/04/04 05:24:27;;;;;;;5.00;2.73;;;9.20;90.70;;;;;;6092298;23;20319;-76
2023/04/04 05:26:57;;;;;;;6.47;3.17;;;9.20;90.60;;;;;;6092664;23;20229;-73
2023/04/04 05:29:25;;;;;;;5.10;2.90;;;9.20;90.60;;;;;;6089506;23;20628;-75
2023/04/04 05:31:54;;;;;;;5.80;3.20;;;9.20;90.50;;;;;;6095325;23;20205;-76
2023/04/04 05:34:23;;;;;;;6.30;3.23;;;9.20;90.60;;;;;;6093768;23;20174;-74
2023/04/04 05:36:51;;;;;;;7.17;3.70;;;9.20;90.50;;;;;;6095357;23;20303;-73
2023/04/04 05:39:20;;;;;;;6.23;3.57;;;9.20;90.60;;;;;;6090998;23;20521;-74
2023/04/04 05:41:48;;;;;;;7.80;3.97;;;9.20;90.70;;;;;;6094916;23;20551;-73
2023/04/04 05:44:18;;;;;;;5.40;3.10;;;9.20;90.70;;;;;;6095974;23;20205;-73
2023/04/04 05:46:46;;;;;;;6.13;3.47;;;9.20;90.70;;;;;;6092889;23;20174;-74
2023/04/04 05:49:15;;;;;;;6.67;3.47;;;9.30;90.70;;;;;;6096030;23;20177;-73
2023/04/04 05:51:43;;;;;;;7.77;3.40;;;9.20;90.70;;;;;;6094799;23;20546;-72
2023/04/04 05:54:11;;;;;;;5.37;3.10;;;9.30;90.70;;;;;;6094152;23;20178;-73
2023/04/04 05:56:40;;;;;;;6.20;3.20;;;9.20;90.60;;;;;;6094108;23;20655;-74
2023/04/04 05:59:08;;;;;;;6.77;3.80;;;9.20;90.70;;;;;;6092503;23;20201;-73
2023/04/04 06:01:39;;;;;;;10.23;3.63;;;9.20;90.70;;;;;;6091578;23;20174;-74
2023/04/04 06:04:07;;;;;;;5.90;3.40;;;9.10;90.80;;;;;;6089694;23;20166;-76
2023/04/04 06:06:35;;;;;;;5.97;3.07;;;9.00;90.60;;;;;;6090731;23;20529;-75
2023/04/04 06:09:04;;;;;;;5.53;3.43;;;9.00;90.60;;;;;;6094639;23;20565;-73
2023/04/04 06:11:35;;;;;;;5.00;2.90;;;8.90;90.40;;;;;;6095480;23;20245;-76
2023/04/04 06:14:04;;;;;;;5.23;2.60;;;8.80;90.40;;;;;;6092097;23;20181;-75
2023/04/04 06:16:32;;;;;;;5.33;2.67;;;8.70;90.50;;;;;;6096562;23;20194;-75
2023/04/04 06:19:02;;;;;;;7.40;3.17;;;8.70;90.70;;;;;;6090562;23;20174;-74
2023/04/04 06:21:30;;;;;;;6.03;2.67;;;8.70;90.70;;;;;;6085395;23;20231;-74
2023/04/04 06:23:58;;;;;;;6.93;2.77;;;8.60;91.10;;;;;;6093039;23;20229;-73
2023/04/04 06:26:27;;;;;;;4.67;2.43;;;8.60;90.60;;;;;;6094333;23;20181;-74
2023/04/04 06:28:55;;;;;;;3.93;2.27;;;8.60;91.00;;;;;;6090690;23;20178;-74
2023/04/04 06:31:23;;;;;;;5.63;2.77;;;8.60;91.00;;;;;;6089468;23;20174;-73
2023/04/04 06:33:52;;;;;;;4.60;2.67;;;8.50;91.10;;;;;;6093336;23;20185;-74
2023/04/04 06:36:21;;;;;;;4.60;2.33;;;8.50;91.20;;;;;;6091145;23;20312;-74
2023/04/04 06:38:50;;;;;;;4.13;2.53;;;8.50;91.20;;;;;;6091461;23;20166;-76
2023/04/04 06:41:18;;;;;;;5.50;2.60;;;8.50;91.00;;;;;;6089530;23;20178;-74
2023/04/04 06:43:47;;;;;;;4.33;2.07;;;8.50;91.20;;;;;;6087132;23;20228;-74
2023/04/04 06:46:15;;;;;;;5.63;2.37;;;8.40;91.20;;;;;;6090498;23;20472;-79
2023/04/04 06:48:44;;;;;;;5.03;2.60;;;8.40;91.30;;;;;;6091359;23;20252;-75
2023/04/04 06:51:12;;;;;;;4.07;2.13;;;8.40;91.30;;;;;;6088490;23;20209;-73
2023/04/04 06:53:42;;;;;;;4.63;2.57;;;8.40;91.30;;;;;;6084768;23;20221;-76
2023/04/04 06:56:10;;;;;;;3.33;1.63;;;8.40;91.30;;;;;;6091682;23;20248;-76
2023/04/04 06:58:39;;;;;;;4.23;2.30;;;8.50;91.40;;;;;;6090708;23;20671;-75
2023/04/04 07:01:07;;;;;;;8.97;2.20;;;8.40;91.10;;;;;;6094361;23;20603;-75
2023/04/04 07:03:36;;;;;;;2.93;1.80;;;8.50;91.00;;;;;;6091526;23;20249;-75
2023/04/04 07:06:04;;;;;;;4.90;2.00;;;8.50;90.90;;;;;;6092789;23;20246;-75
2023/04/04 07:08:33;;;;;;;3.80;1.77;;;8.50;90.90;;;;;;6091353;23;20270;-74
2023/04/04 07:11:06;;;;;;;4.37;2.10;;;8.50;91.00;;;;;;6088836;23;20212;-74
2023/04/04 07:13:35;;;;;;;3.87;1.97;;;8.50;90.70;;;;;;6092264;23;20217;-73
2023/04/04 07:16:03;;;;;;;3.33;1.70;;;8.50;90.70;;;;;;6092881;23;20177;-76
2023/04/04 07:18:32;;;;;;;6.37;2.17;;;8.40;90.50;;;;;;6092247;23;20631;-74
2023/04/04 07:21:00;;;;;;;3.07;1.83;;;8.40;90.60;;;;;;6091657;23;20173;-75
2023/04/04 07:23:28;;;;;;;4.23;2.27;;;8.40;90.80;;;;;;6089244;23;20181;-74
2023/04/04 07:25:57;;;;;;;3.87;1.90;;;8.40;90.90;;;;;;6092647;23;20181;-76
2023/04/04 07:28:26;;;;;;;3.30;1.80;;;8.30;90.90;;;;;;6090946;23;20225;-74
2023/04/04 07:30:55;;;;;;;4.73;1.90;;;8.30;91.10;;;;;;6087302;23;20225;-76
2023/04/04 07:33:23;;;;;;;4.43;2.27;;;8.30;91.20;;;;;;6090033;23;20502;-75
2023/04/04 07:35:52;;;;;;;3.93;1.87;;;8.30;91.10;;;;;;6091220;23;20178;-74
2023/04/04 07:38:20;;;;;;;5.97;2.43;;;8.20;91.20;;;;;;6091610;23;20209;-75
2023/04/04 07:40:49;;;;;;;3.67;2.23;;;8.20;91.30;;;;;;6092773;23;20181;-74
2023/04/04 07:43:18;;;;;;;2.87;1.60;;;8.20;91.30;;;;;;6093310;23;20174;-76
2023/04/04 07:45:47;;;;;;;4.07;2.00;;;8.20;91.50;;;;;;6092617;23;20542;-74
2023/04/04 07:48:17;;;;;;;3.77;1.57;;;8.20;91.70;;;;;;6096141;23;20197;-73
2023/04/04 07:50:46;;;;;;;3.47;1.83;;;8.20;91.80;;;;;;6095041;23;20245;-74
2023/04/04 07:53:15;;;;;;;3.80;1.90;;;8.20;91.80;;;;;;6093665;23;20639;-74
2023/04/04 07:55:43;;;;;;;3.90;1.77;;;8.20;91.90;;;;;;6095944;23;20283;-74
2023/04/04 07:58:11;;;;;;;3.60;1.90;;;8.20;91.90;;;;;;6094092;23;20668;-74
2023/04/04 08:00:40;;;;;;;3.57;1.70;;;8.20;92.20;;;;;;6093515;23;20248;-74
2023/04/04 08:03:11;;;;;;;3.13;1.70;;;8.20;92.60;;;;;;6093726;23;20181;-76
2023/04/04 08:05:41;;;;;;;3.07;1.67;;;8.20;92.80;;;;;;6095772;23;20218;-75
2023/04/04 08:08:09;;;;;;;4.10;1.97;;;8.20;92.90;;;;;;6094689;23;20237;-73
2023/04/04 08:10:38;;;;;;;3.27;1.67;;;8.20;92.90;;;;;;6096188;23;20628;-74
2023/04/04 08:13:08;;;;;;;2.90;1.90;;;8.20;93.00;;;;;;6095987;23;20170;-74
2023/04/04 08:15:37;;;;;;;4.03;2.10;;;8.20;92.90;;;;;;6097091;23;20224;-75
2023/04/04 08:18:06;;;;;;;2.47;1.60;;;8.30;92.90;;;;;;6095584;23;20208;-74
2023/04/04 08:20:36;;;;;;;3.20;1.73;;;8.20;93.10;;;;;;6095712;23;20174;-78
2023/04/04 08:23:05;;;;;;;3.10;1.80;;;8.20;93.10;;;;;;6093728;23;20487;-75
2023/04/04 08:25:34;;;;;;;2.83;1.83;;;8.20;93.30;;;;;;6093423;23;20650;-76
2023/04/04 08:28:04;;;;;;;3.97;1.73;;;8.20;93.10;;;;;;6096613;23;20283;-76
2023/04/04 08:30:32;;;;;;;3.47;1.50;;;8.20;93.30;;;;;;6093376;23;20198;-75
2023/04/04 08:33:01;;;;;;;3.13;1.50;;;8.30;93.30;;;;;;6091084;23;20489;-76
2023/04/04 08:35:33;;;;;;;2.93;1.80;;;8.30;93.40;;;;;;6095157;23;20257;-77
2023/04/04 08:38:05;;;;;;;4.90;1.40;;;8.30;93.40;;;;;;6093439;23;20197;-77
2023/04/04 08:40:33;;;;;;;5.67;1.87;;;8.30;93.40;;;;;;6094926;23;20190;-75
2023/04/04 08:43:04;;;;;;;3.77;1.63;;;8.30;93.50;;;;;;6095151;23;20177;-74
2023/04/04 08:45:33;;;;;;;3.43;1.43;;;8.30;93.60;;;;;;6096040;23;20173;-75
2023/04/04 08:48:04;;;;;;;3.33;2.00;;;8.30;93.80;;;;;;6095430;23;20173;-74
2023/04/04 08:50:36;;;;;;;4.17;1.47;;;8.30;93.80;;;;;;6095743;23;20162;-76
2023/04/04 08:53:07;;;;;;;3.47;1.50;;;8.30;93.70;;;;;;6094307;23;20168;-74
2023/04/04 08:55:36;;;;;;;3.60;1.60;;;8.30;93.80;;;;;;6091869;23;20604;-74
2023/04/04 08:58:05;;;;;;;2.20;1.30;;;8.30;93.90;;;;;;6095929;23;20264;-74
2023/04/04 09:00:34;;;;;;;2.80;1.63;;;8.30;93.80;;;;;;6096632;23;20519;-74
2023/04/04 09:03:09;;;;;;;2.50;1.40;;;8.30;94.00;;;;;;6091915;23;20178;-74
2023/04/04 09:05:38;;;;;;;3.47;1.60;;;8.30;94.00;;;;;;6095672;23;20182;-74
2023/04/04 09:08:09;;;;;;;2.60;1.20;;;8.30;94.10;;;;;;6095808;23;20185;-76
2023/04/04 09:10:42;;;;;;;2.73;1.37;;;8.30;94.10;;;;;;6093819;23;20180;-74
2023/04/04 09:13:11;;;;;;;2.57;1.10;;;8.20;93.80;;;;;;6094858;23;20181;-74
2023/04/04 09:15:47;;;;;;;2.10;1.30;;;8.20;93.90;;;;;;6094450;23;20177;-75
2023/04/04 09:18:16;;;;;;;2.90;1.00;;;8.20;93.90;;;;;;6095244;23;20197;-74
2023/04/04 09:20:46;;;;;;;2.30;1.80;;;8.20;93.80;;;;;;6095005;23;20209;-76
2023/04/04 09:23:17;;;;;;;2.70;1.47;;;8.20;93.80;;;;;;6094168;23;20181;-74
2023/04/04 09:25:47;;;;;;;3.00;1.80;;;8.20;93.90;;;;;;6095565;23;20499;-75
2023/04/04 09:28:21;;;;;;;1.90;1.10;;;8.20;93.90;;;;;;6104538;23;20162;-76
2023/04/04 09:30:51;;;;;;;2.53;1.40;;;8.20;94.10;;;;;;6093467;23;20169;-75
2023/04/04 09:33:22;;;;;;;3.10;1.60;;;8.20;94.00;;;;;;6096610;23;20222;-75
2023/04/04 09:35:55;;;;;;;8.30;1.87;;;8.20;94.10;;;;;;6095672;23;20604;-75
2023/04/04 09:38:27;;;;;;;3.20;1.70;;;8.10;94.30;;;;;;6095162;23;20190;-77
2023/04/04 09:40:56;;;;;;;1.87;1.20;;;8.10;94.20;;;;;;6093002;23;20249;-76
2023/04/04 09:43:25;;;;;;;2.63;1.40;;;8.10;94.30;;;;;;6095554;23;20647;-76
2023/04/04 09:45:55;;;;;;;3.77;1.30;;;8.10;94.40;;;;;;6096243;23;20181;-74
2023/04/04 09:48:27;;;;;;;2.13;1.33;;;8.10;94.30;;;;;;6095131;23;20178;-72
2023/04/04 09:50:58;;;;;;;1.87;1.13;;;8.10;94.20;;;;;;6095389;23;20173;-75
2023/04/04 09:53:28;;;;;;;2.20;1.20;;;8.10;94.30;;;;;;6095400;23;20181;-75
2023/04/04 09:55:57;;;;;;;1.80;1.23;;;8.10;94.40;;;;;;6095039;23;20178;-74
2023/04/04 09:58:27;;;;;;;2.80;1.30;;;8.20;94.50;;;;;;6095796;23;20257;-75
2023/04/04 10:00:59;;;;;;;3.27;1.43;;;8.20;94.50;;;;;;6093424;23;20178;-76
2023/04/04 10:03:28;;;;;;;2.47;1.30;;;8.20;94.40;;;;;;6093537;23;20498;-76
2023/04/04 10:05:59;;;;;;;4.97;1.73;;;8.20;94.30;;;;;;6095639;23;20283;-76
2023/04/04 10:08:30;;;;;;;3.07;1.40;;;8.30;94.40;;;;;;6095816;23;20221;-75
2023/04/04 10:11:00;;;;;;;1.80;1.10;;;8.30;94.40;;;;;;6094120;23;20162;-76
2023/04/04 10:13:34;;;;;;;2.17;1.30;;;8.30;94.20;;;;;;6103597;23;20479;-76
2023/04/04 10:16:13;;;;;;;3.00;1.27;;;8.30;94.30;;;;;;6094636;23;20201;-74
2023/04/04 10:18:41;;;;;;;1.70;1.20;;;8.40;94.50;;;;;;6092174;23;20189;-74
2023/04/04 10:21:09;;;;;;;2.67;1.10;;;8.40;94.30;;;;;;6095374;23;20174;-73
2023/04/04 10:23:46;;;;;;;2.63;1.30;;;8.40;94.20;;;;;;6092779;23;20229;-74
2023/04/04 10:26:14;;;;;;;2.57;1.43;;;8.40;94.30;;;;;;6093763;23;20162;-75
2023/04/04 10:28:44;;;;;;;2.37;1.20;;;8.40;94.30;;;;;;6090983;23;20173;-74
2023/04/04 10:31:20;;;;;;;4.57;1.50;;;8.50;94.20;;;;;;6093977;23;20181;-75
2023/04/04 10:33:56;;;;;;;2.23;1.70;;;8.50;94.30;;;;;;6092682;23;20162;-75
2023/04/04 10:36:30;;;;;;;2.50;1.53;;;8.50;94.30;;;;;;6093737;23;20158;-77
2023/04/04 10:39:11;;;;;;;2.83;1.50;;;8.50;94.30;;;;;;6094361;23;20240;-76
2023/04/04 10:41:40;;;;;;;3.20;1.57;;;8.50;94.40;;;;;;6090733;23;20162;-76
2023/04/04 10:44:19;;;;;;;2.13;1.33;;;8.50;94.40;;;;;;6091638;23;20173;-75
2023/04/04 10:46:50;;;;;;;3.50;1.57;;;8.50;94.40;;;;;;6092333;23;20221;-75
2023/04/04 10:49:20;;;;;;;2.27;1.40;;;8.50;94.40;;;;;;6094698;23;20162;-75
2023/04/04 10:51:49;;;;;;;3.13;1.80;;;8.40;94.70;;;;;;6096567;23;20192;-76
2023/04/04 10:54:27;;;;;;;3.33;1.50;;;8.40;94.60;;;;;;6095408;23;20610;-74
2023/04/04 10:57:00;;;;;;;2.73;1.47;;;8.50;94.60;;;;;;6094923;23;20166;-75
2023/04/04 10:59:28;;;;;;;3.40;1.40;;;8.50;94.60;;;;;;6095350;23;20784;-76
2023/04/04 11:01:59;;;;;;;2.93;1.70;;;8.50;94.60;;;;;;6093081;23;20221;-76
2023/04/04 11:04:34;;;;;;;1.70;1.23;;;8.40;94.70;;;;;;6092918;23;20608;-76
2023/04/04 11:07:14;;;;;;;2.57;1.53;;;8.50;94.70;;;;;;6092633;23;20181;-74
2023/04/04 11:09:49;;;;;;;3.40;1.70;;;8.40;94.60;;;;;;6095203;23;20217;-76
2023/04/04 11:12:22;;;;;;;1.97;1.43;;;8.40;94.80;;;;;;6093081;23;20157;-75
2023/04/04 11:15:06;;;;;;;2.17;1.37;;;8.40;94.90;;;;;;6095796;23;20236;-74
2023/04/04 11:18:05;;;;;;;1.70;1.20;;;8.50;94.90;;;;;;6093711;23;20244;-74
2023/04/04 11:20:54;;;;;;;2.70;1.33;;;8.50;94.80;;;;;;6094392;23;20290;-73
2023/04/04 11:23:26;;;;;;;2.43;1.40;;;8.40;94.80;;;;;;6095021;23;20358;-75
2023/04/04 11:25:58;;;;;;;2.53;1.23;;;8.40;94.80;;;;;;6094113;23;20174;-74
2023/04/04 11:28:42;;;;;;;2.00;1.17;;;8.40;94.70;;;;;;6097123;23;20187;-75
2023/04/04 11:31:28;;;;;;;3.10;1.63;;;8.40;94.80;;;;;;6093763;23;20166;-74
2023/04/04 11:33:59;;;;;;;1.77;1.17;;;8.40;94.80;;;;;;6097218;23;20532;-75
2023/04/04 11:36:51;;;;;;;2.17;1.20;;;8.40;94.90;;;;;;6095737;23;20220;-76
2023/04/04 11:39:25;;;;;;;1.77;1.23;;;8.30;95.00;;;;;;6095979;23;20561;-75
2023/04/04 11:41:57;;;;;;;4.23;1.20;;;8.40;94.80;;;;;;6096905;23;20184;-74
2023/04/04 11:44:29;;;;;;;2.13;1.00;;;8.40;94.80;;;;;;6096092;23;20257;-76
2023/04/04 11:47:03;;;;;;;1.50;1.00;;;8.40;94.90;;;;;;6096764;23;20162;-73
2023/04/04 11:49:35;;;;;;;4.23;1.20;;;8.40;95.20;;;;;;6096742;23;20271;-75
2023/04/04 11:52:05;;;;;;;2.10;1.37;;;8.40;95.00;;;;;;6094164;23;20170;-74
2023/04/04 11:54:34;;;;;;;1.63;1.07;;;8.40;95.00;;;;;;6096107;23;20233;-74
2023/04/04 11:57:07;;;;;;;2.23;1.20;;;8.50;94.90;;;;;;6094813;23;20225;-74
2023/04/04 11:59:40;;;;;;;1.90;1.20;;;8.40;94.90;;;;;;6095507;23;20567;-74
2023/04/04 12:02:10;;;;;;;2.40;1.40;;;8.40;94.80;;;;;;6096132;23;20158;-75
2023/04/04 12:04:39;;;;;;;1.77;1.20;;;8.50;94.90;;;;;;6094940;23;20206;-74
2023/04/04 12:07:11;;;;;;;2.40;1.23;;;8.40;95.00;;;;;;6096258;23;20614;-75
2023/04/04 12:09:41;;;;;;;2.47;1.23;;;8.40;95.00;;;;;;6096013;23;20177;-74
2023/04/04 12:12:16;;;;;;;1.87;1.00;;;8.40;95.10;;;;;;6097027;23;20177;-75
2023/04/04 12:14:44;;;;;;;2.37;1.27;;;8.40;95.00;;;;;;6093832;23;20213;-74
2023/04/04 12:17:14;;;;;;;2.60;1.43;;;8.40;95.30;;;;;;6092662;23;20245;-74
2023/04/04 12:19:44;;;;;;;2.00;1.10;;;8.40;95.40;;;;;;6093570;23;20651;-75
2023/04/04 12:22:12;;;;;;;2.20;1.37;;;8.40;95.30;;;;;;6094186;23;20185;-76
2023/04/04 12:24:40;;;;;;;3.63;1.80;;;8.40;95.40;;;;;;6096806;23;20177;-73
2023/04/04 12:27:09;;;;;;;2.83;1.40;;;8.40;95.40;;;;;;6093934;23;20182;-75
2023/04/04 12:29:39;;;;;;;3.33;1.37;;;8.40;95.40;;;;;;6096134;23;20623;-75
2023/04/04 12:32:09;;;;;;;2.30;1.30;;;8.40;95.30;;;;;;6095576;23;20174;-74
2023/04/04 12:34:43;;;;;;;3.30;1.30;;;8.40;95.40;;;;;;6095803;23;20233;-75
2023/04/04 12:37:18;;;;;;;1.97;1.27;;;8.40;95.40;;;;;;6093130;23;20491;-75
2023/04/04 12:39:48;;;;;;;1.93;1.10;;;8.40;95.40;;;;;;6093697;23;20198;-73
2023/04/04 12:42:22;;;;;;;2.37;1.00;;;8.40;95.40;;;;;;6095398;23;20185;-73
2023/04/04 12:44:53;;;;;;;3.27;1.37;;;8.40;95.60;;;;;;6093281;23;20166;-76
2023/04/04 12:47:24;;;;;;;2.83;1.50;;;8.40;95.90;;;;;;6094347;23;20626;-76
2023/04/04 12:49:54;;;;;;;2.40;1.43;;;8.40;95.60;;;;;;6092981;23;20170;-76
2023/04/04 12:52:26;;;;;;;3.03;1.47;;;8.40;95.90;;;;;;6092701;23;20170;-76
2023/04/04 12:54:58;;;;;;;4.13;1.70;;;8.40;96.00;;;;;;6094208;23;20201;-77
2023/04/04 12:57:36;;;;;;;4.90;2.30;;;8.40;96.00;;;;;;6092799;23;20241;-77
2023/04/04 13:00:08;;;;;;;4.43;1.87;;;8.40;96.40;;;;;;6090382;23;20213;-76
2023/04/04 13:02:56;;;;;;;5.27;1.77;;;8.50;96.20;;;;;;6095246;23;20220;-74
2023/04/04 13:05:25;;;;;;;3.43;1.70;;;8.50;96.20;;;;;;6091838;23;20252;-75
2023/04/04 13:08:06;;;;;;;4.63;1.60;;;8.60;96.00;;;;;;6095218;23;20170;-74
2023/04/04 13:10:58;;;;;;;2.13;1.40;;;8.60;95.80;;;;;;6092929;23;20663;-76